createdAt,value
2023-04-29T00:01:12.247Z,101596.31
2023-04-29T00:03:40.292Z,101597.25
2023-04-29T00:06:10.453Z,101596.41
2023-04-29T00:08:38.338Z,101595.63
2023-04-29T00:11:06.273Z,101589.56
2023-04-29T00:13:34.151Z,101588.78
2023-04-29T00:16:02.198Z,101586.13
2023-04-29T00:18:32.426Z,101589.66
2023-04-29T00:21:00.264Z,101582.78
2023-04-29T00:23:28.210Z,101582.81
2023-04-29T00:25:56.018Z,101585.41
2023-04-29T00:28:23.887Z,101584.59
2023-04-29T00:30:51.893Z,101587.31
2023-04-29T00:33:19.744Z,101584.78
2023-04-29T00:35:49.241Z,101585.69
2023-04-29T00:38:17.326Z,101581.41
2023-04-29T00:40:45.959Z,101578.81
2023-04-29T00:43:13.921Z,101577.19
2023-04-29T00:45:41.828Z,101580.66
2023-04-29T00:48:09.843Z,101573.78
2023-04-29T00:50:37.875Z,101576.41
2023-04-29T00:53:07.351Z,101577.28
2023-04-29T00:55:36.651Z,101579.09
2023-04-29T00:58:04.545Z,101582.63
2023-04-29T01:00:32.542Z,101576.59
2023-04-29T01:03:00.626Z,101574.97
2023-04-29T01:05:28.874Z,101578.44
2023-04-29T01:08:08.876Z,101571.53
2023-04-29T01:10:45.670Z,101575.03
2023-04-29T01:13:19.126Z,101573.41
2023-04-29T01:15:51.175Z,101570.88
2023-04-29T01:18:26.058Z,101572.56
2023-04-29T01:20:54.658Z,101570.00
2023-04-29T01:23:28.137Z,101570.06
2023-04-29T01:25:56.442Z,101576.09
2023-04-29T01:28:40.778Z,101568.34
2023-04-29T01:31:12.351Z,101564.94
2023-04-29T01:33:49.479Z,101572.69
2023-04-29T01:36:27.819Z,101567.56
2023-04-29T01:39:08.248Z,101563.28
2023-04-29T01:41:42.191Z,101565.06
2023-04-29T01:44:16.522Z,101567.69
2023-04-29T01:46:46.960Z,101555.75
2023-04-29T01:49:14.942Z,101563.50
2023-04-29T01:51:42.925Z,101554.94
2023-04-29T01:54:12.220Z,101550.75
2023-04-29T01:56:40.190Z,101553.34
2023-04-29T01:59:08.297Z,101550.72
2023-04-29T02:01:36.170Z,101548.19
2023-04-29T02:04:04.116Z,101549.94
2023-04-29T02:06:33.641Z,101544.72
2023-04-29T02:09:01.637Z,101548.16
2023-04-29T02:11:33.508Z,101549.09
2023-04-29T02:14:04.465Z,101540.66
2023-04-29T02:16:32.329Z,101543.25
2023-04-29T02:19:00.454Z,101537.25
2023-04-29T02:21:28.341Z,101538.13
2023-04-29T02:23:56.549Z,101538.13
2023-04-29T02:26:24.879Z,101532.13
2023-04-29T02:28:54.892Z,101533.94
2023-04-29T02:31:22.548Z,101528.91
2023-04-29T02:33:50.521Z,101526.28
2023-04-29T02:36:18.900Z,101519.41
2023-04-29T02:38:46.937Z,101521.16
2023-04-29T02:41:18.158Z,101514.28
2023-04-29T02:43:46.595Z,101518.66
2023-04-29T02:46:16.426Z,101520.44
2023-04-29T02:48:44.384Z,101517.88
2023-04-29T02:51:12.412Z,101511.91
2023-04-29T02:53:40.234Z,101514.59
2023-04-29T02:56:08.231Z,101512.84
2023-04-29T02:58:36.112Z,101504.38
2023-04-29T03:01:04.991Z,101506.16
2023-04-29T03:03:34.465Z,101501.97
2023-04-29T03:06:02.484Z,101507.91
2023-04-29T03:08:30.634Z,101500.16
2023-04-29T03:10:58.816Z,101495.00
2023-04-29T03:13:26.775Z,101496.75
2023-04-29T03:15:54.713Z,101494.16
2023-04-29T03:18:22.537Z,101498.34
2023-04-29T03:20:52.040Z,101485.44
2023-04-29T03:23:19.965Z,101484.53
2023-04-29T03:25:47.876Z,101489.69
2023-04-29T03:28:16.183Z,101485.38
2023-04-29T03:30:44.035Z,101487.00
2023-04-29T03:33:11.849Z,101487.78
2023-04-29T03:35:39.819Z,101480.88
2023-04-29T03:38:09.087Z,101482.56
2023-04-29T03:40:37.016Z,101485.09
2023-04-29T03:43:04.943Z,101482.47
2023-04-29T03:45:33.074Z,101481.50
2023-04-29T03:48:01.210Z,101477.97
2023-04-29T03:50:29.195Z,101477.81
2023-04-29T03:52:57.922Z,101469.16
2023-04-29T03:55:27.282Z,101464.00
2023-04-29T03:57:55.310Z,101469.94
2023-04-29T04:00:24.034Z,101465.69
2023-04-29T04:02:52.147Z,101469.91
2023-04-29T04:05:21.081Z,101461.22
2023-04-29T04:07:52.493Z,101461.13
2023-04-29T04:10:20.895Z,101458.50
2023-04-29T04:12:50.181Z,101455.88
2023-04-29T04:15:18.195Z,101454.03
2023-04-29T04:17:46.202Z,101450.56
2023-04-29T04:20:14.358Z,101441.06
2023-04-29T04:22:42.226Z,101447.75
2023-04-29T04:25:11.343Z,101440.91
2023-04-29T04:27:39.183Z,101439.84
2023-04-29T04:30:09.899Z,101445.94
2023-04-29T04:32:37.890Z,101442.53
2023-04-29T04:35:06.562Z,101440.63
2023-04-29T04:37:34.453Z,101437.78
2023-04-29T04:40:02.491Z,101436.88
2023-04-29T04:42:30.416Z,101430.81
2023-04-29T04:44:58.368Z,101432.34
2023-04-29T04:47:27.640Z,101428.66
2023-04-29T04:49:55.748Z,101432.50
2023-04-29T04:52:23.930Z,101419.19
2023-04-29T04:54:51.842Z,101421.97
2023-04-29T04:57:19.689Z,101425.38
2023-04-29T04:59:47.608Z,101419.22
2023-04-29T05:02:15.556Z,101414.03
2023-04-29T05:04:44.731Z,101412.09
2023-04-29T05:07:12.658Z,101413.69
2023-04-29T05:09:40.761Z,101417.00
2023-04-29T05:12:08.698Z,101412.53
2023-04-29T05:14:36.612Z,101404.56
2023-04-29T05:17:04.533Z,101409.44
2023-04-29T05:19:32.481Z,101409.13
2023-04-29T05:22:01.855Z,101401.06
2023-04-29T05:24:30.453Z,101395.53
2023-04-29T05:26:58.380Z,101391.66
2023-04-29T05:29:27.267Z,101394.78
2023-04-29T05:31:55.238Z,101388.09
2023-04-29T05:34:23.141Z,101386.63
2023-04-29T05:36:50.944Z,101392.97
2023-04-29T05:39:20.347Z,101383.66
2023-04-29T05:41:48.312Z,101376.19
2023-04-29T05:44:16.261Z,101366.84
2023-04-29T05:46:44.272Z,101367.22
2023-04-29T05:49:12.324Z,101364.91
2023-04-29T05:51:40.282Z,101360.84
2023-04-29T05:54:08.192Z,101358.19
2023-04-29T05:56:37.509Z,101355.13
2023-04-29T05:59:05.485Z,101358.69
2023-04-29T06:01:34.041Z,101347.81
2023-04-29T06:04:02.243Z,101347.94
2023-04-29T06:06:30.506Z,101349.16
2023-04-29T06:08:58.509Z,101340.34
2023-04-29T06:11:26.848Z,101342.66
2023-04-29T06:13:56.101Z,101331.97
2023-04-29T06:16:24.107Z,101332.81
2023-04-29T06:18:52.235Z,101339.03
2023-04-29T06:21:20.047Z,101332.81
2023-04-29T06:23:47.931Z,101329.06
2023-04-29T06:26:15.833Z,101326.41
2023-04-29T06:28:43.729Z,101328.72
2023-04-29T06:31:12.998Z,101319.63
2023-04-29T06:33:40.936Z,101316.63
2023-04-29T06:36:09.124Z,101311.06
2023-04-29T06:38:36.952Z,101309.78
2023-04-29T06:41:05.034Z,101305.16
2023-04-29T06:43:32.961Z,101307.06
2023-04-29T06:46:01.040Z,101295.25
2023-04-29T06:48:30.254Z,101293.97
2023-04-29T06:51:00.001Z,101296.34
2023-04-29T06:53:28.827Z,101280.78
2023-04-29T06:55:56.807Z,101284.22
2023-04-29T06:58:24.616Z,101279.44
2023-04-29T07:00:52.897Z,101279.06
2023-04-29T07:03:20.973Z,101269.50
2023-04-29T07:05:50.370Z,101278.69
2023-04-29T07:08:18.328Z,101269.06
2023-04-29T07:10:46.797Z,101267.91
2023-04-29T07:13:14.652Z,101266.25
2023-04-29T07:15:42.554Z,101269.81
2023-04-29T07:18:10.640Z,101273.88
2023-04-29T07:20:38.610Z,101256.44
2023-04-29T07:23:07.864Z,101251.38
2023-04-29T07:25:36.025Z,101258.31
2023-04-29T07:28:04.690Z,101252.16
2023-04-29T07:30:32.705Z,101242.97
2023-04-29T07:33:00.689Z,101236.91
2023-04-29T07:35:28.756Z,101238.13
2023-04-29T07:37:57.087Z,101233.16
2023-04-29T07:40:26.467Z,101230.13
2023-04-29T07:42:54.431Z,101237.38
2023-04-29T07:45:22.348Z,101229.63
2023-04-29T07:47:50.257Z,101230.66
2023-04-29T07:50:18.300Z,101230.66
2023-04-29T07:52:46.184Z,101228.41
2023-04-29T07:55:14.153Z,101222.06
2023-04-29T07:57:43.428Z,101225.63
2023-04-29T08:00:12.142Z,101221.94
2023-04-29T08:02:40.504Z,101214.00
2023-04-29T08:05:09.273Z,101218.22
2023-04-29T08:07:37.329Z,101211.88
2023-04-29T08:10:05.981Z,101213.19
2023-04-29T08:12:34.270Z,101207.47
2023-04-29T08:15:04.857Z,101208.19
2023-04-29T08:17:32.868Z,101207.03
2023-04-29T08:20:00.852Z,101200.56
2023-04-29T08:22:28.702Z,101203.84
2023-04-29T08:24:57.676Z,101201.53
2023-04-29T08:27:25.761Z,101198.25
2023-04-29T08:29:53.795Z,101201.06
2023-04-29T08:32:23.296Z,101183.28
2023-04-29T08:34:51.433Z,101179.53
2023-04-29T08:37:20.728Z,101183.91
2023-04-29T08:39:49.046Z,101185.22
2023-04-29T08:42:20.778Z,101187.16
2023-04-29T08:44:50.507Z,101178.56
2023-04-29T08:47:19.189Z,101173.13
2023-04-29T08:49:48.526Z,101168.75
2023-04-29T08:52:16.397Z,101167.59
2023-04-29T08:54:44.334Z,101172.22
2023-04-29T08:57:14.532Z,101165.28
2023-04-29T08:59:43.415Z,101165.19
2023-04-29T09:02:17.148Z,101162.03
2023-04-29T09:04:54.935Z,101170.00
2023-04-29T09:07:24.042Z,101166.53
2023-04-29T09:09:53.981Z,101158.38
2023-04-29T09:12:21.981Z,101162.97
2023-04-29T09:14:49.844Z,101162.66
2023-04-29T09:17:18.283Z,101148.19
2023-04-29T09:19:46.199Z,101150.59
2023-04-29T09:22:15.519Z,101153.22
2023-04-29T09:24:44.396Z,101147.13
2023-04-29T09:27:28.229Z,101138.88
2023-04-29T09:30:02.533Z,101150.81
2023-04-29T09:32:30.927Z,101149.66
2023-04-29T09:34:58.792Z,101136.16
2023-04-29T09:37:28.862Z,101136.25
2023-04-29T09:39:56.803Z,101132.56
2023-04-29T09:42:24.792Z,101123.38
2023-04-29T09:44:54.511Z,101115.00
2023-04-29T09:47:31.314Z,101113.50
2023-04-29T09:50:13.690Z,101102.22
2023-04-29T09:52:43.301Z,101089.41
2023-04-29T09:55:12.655Z,101088.97
2023-04-29T09:57:44.365Z,101087.19
2023-04-29T10:00:14.659Z,101081.31
2023-04-29T10:02:43.777Z,101076.50
2023-04-29T10:05:12.483Z,101071.47
2023-04-29T10:07:42.615Z,101072.19
2023-04-29T10:10:13.707Z,101058.03
2023-04-29T10:12:42.471Z,101060.56
2023-04-29T10:15:24.295Z,101059.44
2023-04-29T10:17:59.292Z,101053.56
2023-04-29T10:20:27.513Z,101044.94
2023-04-29T10:22:59.504Z,101039.41
2023-04-29T10:25:28.315Z,101034.47
2023-04-29T10:27:57.007Z,101032.03
2023-04-29T10:30:25.315Z,101021.78
2023-04-29T10:32:53.278Z,101029.63
2023-04-29T10:35:23.934Z,101024.41
2023-04-29T10:37:53.006Z,101008.94
2023-04-29T10:40:29.474Z,101006.09
2023-04-29T10:42:58.026Z,101011.97
2023-04-29T10:45:28.529Z,101010.81
2023-04-29T10:48:15.704Z,101004.97
2023-04-29T10:51:03.352Z,100996.47
2023-04-29T10:53:31.744Z,100992.91
2023-04-29T10:56:09.886Z,100985.41
2023-04-29T10:58:43.718Z,100976.22
2023-04-29T11:01:13.752Z,100968.03
2023-04-29T11:04:05.152Z,100963.22
2023-04-29T11:06:53.193Z,100958.22
2023-04-29T11:09:23.289Z,100956.22
2023-04-29T11:12:03.478Z,100943.44
2023-04-29T11:14:32.690Z,100942.72
2023-04-29T11:17:02.396Z,100935.25
2023-04-29T11:19:34.859Z,100938.09
2023-04-29T11:22:11.405Z,100926.88
2023-04-29T11:24:51.030Z,100918.59
2023-04-29T11:27:23.001Z,100913.25
2023-04-29T11:29:51.931Z,100906.44
2023-04-29T11:32:22.696Z,100908.53
2023-04-29T11:34:50.714Z,100898.03
2023-04-29T11:37:23.300Z,100899.09
2023-04-29T11:39:52.286Z,100888.72
2023-04-29T11:42:24.975Z,100885.41
2023-04-29T11:44:54.647Z,100883.47
2023-04-29T11:47:24.172Z,100862.19
2023-04-29T11:49:52.137Z,100872.81
2023-04-29T11:52:20.077Z,100871.97
2023-04-29T11:54:48.844Z,100861.00
2023-04-29T11:57:16.832Z,100867.09
2023-04-29T11:59:46.086Z,100852.06
2023-04-29T12:02:14.860Z,100865.19
2023-04-29T12:04:49.071Z,100861.56
2023-04-29T12:07:17.995Z,100870.47
2023-04-29T12:09:46.794Z,100864.25
2023-04-29T12:12:15.957Z,100858.34
2023-04-29T12:14:45.984Z,100869.00
2023-04-29T12:17:14.375Z,100866.03
2023-04-29T12:19:44.120Z,100869.81
2023-04-29T12:22:12.510Z,100868.25
2023-04-29T12:24:41.173Z,100870.84
2023-04-29T12:27:12.376Z,100872.88
2023-04-29T12:29:41.227Z,100888.22
2023-04-29T12:32:19.506Z,100881.94
2023-04-29T12:34:48.013Z,100908.81
2023-04-29T12:37:16.585Z,100893.13
2023-04-29T12:39:44.777Z,100893.97
2023-04-29T12:42:16.926Z,100906.75
2023-04-29T12:44:47.567Z,100900.06
2023-04-29T12:47:17.637Z,100896.25
2023-04-29T12:49:47.124Z,100883.00
2023-04-29T12:52:15.154Z,100889.78
2023-04-29T12:54:44.074Z,100871.31
2023-04-29T12:57:12.646Z,100880.38
2023-04-29T12:59:41.415Z,100874.97
2023-04-29T13:02:10.022Z,100871.75
2023-04-29T13:04:40.243Z,100886.00
2023-04-29T13:07:08.062Z,100872.03
2023-04-29T13:09:37.974Z,100879.78
2023-04-29T13:12:09.516Z,100879.78
2023-04-29T13:14:37.585Z,100870.44
2023-04-29T13:17:06.434Z,100863.88
2023-04-29T13:19:48.056Z,100869.53
2023-04-29T13:22:20.333Z,100864.13
2023-04-29T13:24:48.244Z,100859.44
2023-04-29T13:27:16.207Z,100851.50
2023-04-29T13:29:44.314Z,100849.91
2023-04-29T13:32:12.643Z,100843.53
2023-04-29T13:34:43.313Z,100834.66
2023-04-29T13:37:11.646Z,100824.25
2023-04-29T13:39:45.204Z,100829.81
2023-04-29T13:42:15.388Z,100831.47
2023-04-29T13:44:52.760Z,100833.00
2023-04-29T13:47:26.148Z,100833.88
2023-04-29T14:00:25.337Z,100788.19
2023-04-29T14:05:27.205Z,100776.16
2023-04-29T14:07:55.338Z,100781.06
2023-04-29T14:10:24.686Z,100771.03
2023-04-29T14:12:52.527Z,100764.84
2023-04-29T14:15:20.770Z,100763.56
2023-04-29T14:17:50.228Z,100773.44
2023-04-29T14:20:18.254Z,100760.34
2023-04-29T14:22:46.294Z,100755.56
2023-04-29T14:25:14.405Z,100748.25
2023-04-29T14:27:43.681Z,100762.78
2023-04-29T14:30:12.433Z,100748.44
2023-04-29T14:32:40.435Z,100759.31
2023-04-29T14:35:09.083Z,100750.97
2023-04-29T14:37:37.028Z,100751.59
2023-04-29T14:40:06.503Z,100749.19
2023-04-29T14:42:34.492Z,100750.75
2023-04-29T14:45:03.794Z,100752.00
2023-04-29T14:47:34.718Z,100753.69
2023-04-29T14:50:02.680Z,100745.44
2023-04-29T14:52:30.735Z,100747.84
2023-04-29T14:54:58.658Z,100735.41
2023-04-29T14:57:26.533Z,100734.13
2023-04-29T14:59:54.480Z,100737.38
2023-04-29T15:02:23.833Z,100725.25
2023-04-29T15:04:51.699Z,100724.41
2023-04-29T15:07:19.988Z,100721.38
2023-04-29T15:09:47.872Z,100713.66
2023-04-29T15:12:17.638Z,100709.25
2023-04-29T15:14:45.528Z,100692.84
2023-04-29T15:17:13.515Z,100690.44
2023-04-29T15:19:42.814Z,100697.66
2023-04-29T15:22:10.902Z,100692.63
2023-04-29T15:24:39.773Z,100701.72
2023-04-29T15:27:07.757Z,100697.78
2023-04-29T15:29:37.591Z,100701.19
2023-04-29T15:32:05.982Z,100703.31
2023-04-29T15:34:33.810Z,100678.88
2023-04-29T15:37:03.136Z,100700.56
2023-04-29T15:39:31.015Z,100700.13
2023-04-29T15:42:00.242Z,100703.56
2023-04-29T15:44:28.172Z,100706.44
2023-04-29T15:46:56.080Z,100726.91
2023-04-29T15:49:24.622Z,100725.72
2023-04-29T15:51:52.811Z,100719.81
2023-04-29T15:54:23.120Z,100731.38
2023-04-29T15:56:50.990Z,100730.53
2023-04-29T15:59:18.891Z,100730.91
2023-04-29T16:01:46.882Z,100737.13
2023-04-29T16:04:14.802Z,100735.91
2023-04-29T16:06:42.827Z,100738.19
2023-04-29T16:09:12.158Z,100722.84
2023-04-29T16:11:41.572Z,100728.22
2023-04-29T16:14:09.533Z,100710.59
2023-04-29T16:16:37.425Z,100702.13
2023-04-29T16:19:05.368Z,100693.75
2023-04-29T16:21:34.115Z,100694.88
2023-04-29T16:24:02.012Z,100689.94
2023-04-29T16:26:30.361Z,100682.84
2023-04-29T16:28:59.859Z,100675.13
2023-04-29T16:31:28.371Z,100677.38
2023-04-29T16:33:57.464Z,100683.81
2023-04-29T16:36:26.313Z,100682.44
2023-04-29T16:38:55.069Z,100680.47
2023-04-29T16:41:24.107Z,100666.53
2023-04-29T16:43:52.005Z,100664.47
2023-04-29T16:46:21.556Z,100663.47
2023-04-29T16:48:51.313Z,100659.19
2023-04-29T16:51:19.448Z,100663.28
2023-04-29T16:53:47.301Z,100652.78
2023-04-29T16:56:15.298Z,100646.81
2023-04-29T16:58:43.166Z,100646.72
2023-04-29T17:01:11.245Z,100639.78
2023-04-29T17:03:41.173Z,100649.63
2023-04-29T17:06:09.278Z,100645.25
2023-04-29T17:08:37.309Z,100647.84
2023-04-29T17:11:06.647Z,100648.56
2023-04-29T17:13:34.695Z,100651.19
2023-04-29T17:16:02.730Z,100650.31
2023-04-29T17:18:30.586Z,100651.53
2023-04-29T17:21:00.847Z,100643.81
2023-04-29T17:23:28.719Z,100658.22
2023-04-29T17:25:57.134Z,100643.28
2023-04-29T17:28:25.125Z,100643.91
2023-04-29T17:30:55.766Z,100643.19
2023-04-29T17:33:32.446Z,100646.06
2023-04-29T17:36:02.294Z,100647.91
2023-04-29T17:38:30.315Z,100642.78
2023-04-29T17:40:58.207Z,100640.19
2023-04-29T17:43:26.653Z,100640.19
2023-04-29T17:45:54.841Z,100634.13
2023-04-29T17:48:22.880Z,100626.34
2023-04-29T17:50:50.776Z,100630.72
2023-04-29T17:53:20.058Z,100629.69
2023-04-29T17:55:47.939Z,100627.94
2023-04-29T17:58:15.914Z,100631.44
2023-04-29T18:00:43.935Z,100619.28
2023-04-29T18:03:11.993Z,100620.94
2023-04-29T18:05:39.892Z,100611.38
2023-04-29T18:08:07.778Z,100614.16
2023-04-29T18:10:37.025Z,100616.69
2023-04-29T18:13:05.026Z,100612.31
2023-04-29T18:15:33.215Z,100616.69
2023-04-29T18:18:01.120Z,100620.31
2023-04-29T18:20:29.056Z,100617.13
2023-04-29T18:22:57.024Z,100617.94
2023-04-29T18:25:24.889Z,100621.75
2023-04-29T18:28:07.604Z,100616.31
2023-04-29T18:30:43.553Z,100619.28
2023-04-29T18:33:11.530Z,100622.22
2023-04-29T18:35:39.454Z,100625.00
2023-04-29T18:38:08.486Z,100632.06
2023-04-29T18:40:37.005Z,100624.69
2023-04-29T18:43:06.277Z,100610.09
2023-04-29T18:45:34.134Z,100612.22
2023-04-29T18:48:05.557Z,100615.81
2023-04-29T18:50:34.058Z,100617.09
2023-04-29T18:53:02.030Z,100624.59
2023-04-29T18:55:30.675Z,100628.09
2023-04-29T18:57:58.749Z,100632.81
2023-04-29T19:00:28.222Z,100630.00
2023-04-29T19:02:56.657Z,100632.69
2023-04-29T19:05:24.937Z,100640.81
2023-04-29T19:07:53.016Z,100639.22
2023-04-29T19:10:21.316Z,100637.59
2023-04-29T19:12:49.415Z,100648.91
2023-04-29T19:15:17.819Z,100640.38
2023-04-29T19:17:47.303Z,100638.63
2023-04-29T19:20:15.461Z,100639.47
2023-04-29T19:22:43.602Z,100644.97
2023-04-29T19:25:12.114Z,100628.63
2023-04-29T19:27:45.116Z,100624.22
2023-04-29T19:30:14.300Z,100625.47
2023-04-29T19:32:43.077Z,100630.75
2023-04-29T19:35:13.007Z,100636.34
2023-04-29T19:37:41.443Z,100632.69
2023-04-29T19:40:10.904Z,100632.69
2023-04-29T19:42:40.076Z,100641.91
2023-04-29T19:45:09.693Z,100632.69
2023-04-29T19:47:37.739Z,100632.00
2023-04-29T19:50:06.433Z,100630.41
2023-04-29T19:52:35.655Z,100627.13
2023-04-29T19:55:04.909Z,100623.47
2023-04-29T19:57:33.130Z,100625.28
2023-04-29T20:00:01.468Z,100619.94
2023-04-29T20:02:29.469Z,100623.22
2023-04-29T20:04:57.517Z,100624.06
2023-04-29T20:07:25.566Z,100620.72
2023-04-29T20:09:55.165Z,100617.19
2023-04-29T20:12:23.405Z,100617.13
2023-04-29T20:14:51.256Z,100619.94
2023-04-29T20:17:19.204Z,100615.25
2023-04-29T20:19:47.130Z,100616.25
2023-04-29T20:22:15.052Z,100615.72
2023-04-29T20:24:42.935Z,100621.38
2023-04-29T20:27:12.296Z,100615.41
2023-04-29T20:29:40.197Z,100621.84
2023-04-29T20:32:08.110Z,100622.13
2023-04-29T20:34:36.471Z,100627.16
2023-04-29T20:37:04.435Z,100620.97
2023-04-29T20:39:32.353Z,100624.56
2023-04-29T20:42:00.499Z,100619.25
2023-04-29T20:44:30.348Z,100617.41
2023-04-29T20:46:58.538Z,100625.13
2023-04-29T20:49:26.760Z,100622.44
2023-04-29T20:51:54.746Z,100618.00
2023-04-29T20:54:22.740Z,100617.91
2023-04-29T20:56:50.606Z,100626.41
2023-04-29T20:59:18.666Z,100618.53
2023-04-29T21:01:47.949Z,100616.56
2023-04-29T21:04:16.523Z,100619.97
2023-04-29T21:06:44.620Z,100621.66
2023-04-29T21:09:12.750Z,100619.72
2023-04-29T21:11:40.649Z,100623.41
2023-04-29T21:14:08.443Z,100626.00
2023-04-29T21:16:36.420Z,100632.03
2023-04-29T21:19:05.726Z,100618.38
2023-04-29T21:21:33.717Z,100629.84
2023-04-29T21:24:01.560Z,100629.06
2023-04-29T21:26:29.444Z,100617.84
2023-04-29T21:28:57.319Z,100620.16
2023-04-29T21:31:25.341Z,100618.13
2023-04-29T21:33:53.295Z,100620.84
2023-04-29T21:36:22.575Z,100620.22
2023-04-29T21:38:51.953Z,100618.09
2023-04-29T21:41:25.110Z,100624.34
2023-04-29T21:43:53.413Z,100626.78
2023-04-29T21:46:21.780Z,100630.09
2023-04-29T21:48:50.071Z,100628.94
2023-04-29T21:51:19.628Z,100628.84
2023-04-29T21:53:48.836Z,100633.03
2023-04-29T21:56:16.848Z,100628.72
2023-04-29T21:58:44.859Z,100632.06
2023-04-29T22:01:26.660Z,100630.31
2023-04-29T22:03:54.647Z,100627.56
2023-04-29T22:06:22.657Z,100631.78
2023-04-29T22:08:52.115Z,100629.03
2023-04-29T22:11:21.560Z,100632.34
2023-04-29T22:13:49.691Z,100633.13
2023-04-29T22:16:18.741Z,100633.88
2023-04-29T22:18:46.801Z,100630.31
2023-04-29T22:21:14.829Z,100629.47
2023-04-29T22:23:43.174Z,100633.47
2023-04-29T22:26:12.477Z,100640.44
2023-04-29T22:28:40.410Z,100642.13
2023-04-29T22:31:08.276Z,100644.56
2023-04-29T22:33:36.169Z,100655.84
2023-04-29T22:36:05.313Z,100650.81
2023-04-29T22:38:33.252Z,100652.56
2023-04-29T22:43:31.304Z,100661.19
2023-04-29T22:45:59.331Z,100663.09
2023-04-29T22:48:28.044Z,100666.38
2023-04-29T22:50:59.306Z,100667.56
2023-04-29T22:53:27.680Z,100661.56
2023-04-29T22:55:57.119Z,100663.31
2023-04-29T22:58:26.396Z,100660.22
2023-04-29T23:00:57.246Z,100669.81
2023-04-29T23:03:25.531Z,100665.63
2023-04-29T23:05:54.988Z,100676.97
2023-04-29T23:08:22.861Z,100667.50
2023-04-29T23:10:50.997Z,100677.09
2023-04-29T23:13:19.029Z,100680.53
2023-04-29T23:15:47.095Z,100688.41
2023-04-29T23:18:16.498Z,100684.06
2023-04-29T23:20:47.829Z,100697.84
2023-04-29T23:23:15.880Z,100691.91
2023-04-29T23:25:43.768Z,100693.59
2023-04-29T23:28:11.704Z,100703.94
2023-04-29T23:30:39.583Z,100703.19
2023-04-29T23:33:07.568Z,100708.59
2023-04-29T23:35:36.893Z,100710.34
2023-04-29T23:38:04.858Z,100706.13
2023-04-29T23:40:32.811Z,100714.97
2023-04-29T23:43:00.774Z,100721.16
2023-04-29T23:45:29.928Z,100726.28
2023-04-29T23:47:57.826Z,100716.94
2023-04-29T23:50:25.843Z,100726.78
2023-04-29T23:52:55.103Z,100736.28
2023-04-29T23:55:23.022Z,100735.44
2023-04-29T23:57:50.946Z,100733.78
